N260MU PAKT-CYBD
Flight info
| Callsign | N260MU |
|---|---|
| Flight time | N/A |
| Altitude | 27000 |
| Route | HIGHE Q902 DUGGS |
| Aircraft | MU2/L-SDGIRY/LB1 |
Departure
| Time | 2026-04-16 17:07 |
|---|---|
| Airport | Ketchikan International Airport (PAKT) |
Arrival
| Time | N/A |
|---|---|
| Airport | Bella Coola Airport (CYBD) |
| Time | Latitude | Longitude | Altitude | Speed | Heading |
|---|---|---|---|---|---|
| 2026-04-16 16:58 | 55.35550 | -131.70856 | 42 ft | 0 kts | 317° |
| 2026-04-16 17:03 | 55.35550 | -131.70857 | 42 ft | 0 kts | 317° |
| 2026-04-16 17:03 | 55.35562 | -131.70888 | 43 ft | 7 kts | 282° |
| 2026-04-16 17:03 | 55.35529 | -131.70972 | 43 ft | 10 kts | 229° |
| 2026-04-16 17:04 | 55.35543 | -131.71050 | 48 ft | 10 kts | 316° |
| 2026-04-16 17:04 | 55.35610 | -131.71167 | 40 ft | 17 kts | 316° |
| 2026-04-16 17:04 | 55.35705 | -131.71327 | 37 ft | 19 kts | 312° |
| 2026-04-16 17:04 | 55.35804 | -131.71507 | 35 ft | 23 kts | 314° |
| 2026-04-16 17:05 | 55.35920 | -131.71713 | 33 ft | 18 kts | 314° |
| 2026-04-16 17:05 | 55.35999 | -131.71855 | 32 ft | 17 kts | 314° |
| 2026-04-16 17:05 | 55.36015 | -131.72005 | 34 ft | 8 kts | 236° |
| 2026-04-16 17:05 | 55.35989 | -131.72110 | 35 ft | 5 kts | 251° |
| 2026-04-16 17:06 | 55.35978 | -131.72111 | 35 ft | 1 kts | 131° |
| 2026-04-16 17:06 | 55.35977 | -131.72111 | 35 ft | 0 kts | 133° |
| 2026-04-16 17:06 | 55.35749 | -131.71713 | 40 ft | 101 kts | 134° |
| 2026-04-16 17:06 | 55.35148 | -131.70692 | 355 ft | 130 kts | 137° |
| 2026-04-16 17:07 | 55.34401 | -131.69632 | 866 ft | 148 kts | 143° |
| 2026-04-16 17:07 | 55.33528 | -131.68611 | 1523 ft | 153 kts | 149° |
| 2026-04-16 17:07 | 55.32613 | -131.67720 | 2037 ft | 159 kts | 152° |
| 2026-04-16 17:07 | 55.31484 | -131.67631 | 2391 ft | 176 kts | 200° |
| 2026-04-16 17:08 | 55.30370 | -131.68329 | 3121 ft | 169 kts | 188° |
| 2026-04-16 17:08 | 55.29243 | -131.67929 | 3713 ft | 171 kts | 157° |
| 2026-04-16 17:08 | 55.28159 | -131.66998 | 4248 ft | 176 kts | 155° |
| 2026-04-16 17:08 | 55.27034 | -131.66142 | 4782 ft | 178 kts | 160° |
| 2026-04-16 17:09 | 55.25861 | -131.65445 | 5298 ft | 179 kts | 165° |
| 2026-04-16 17:09 | 55.24821 | -131.64940 | 5753 ft | 137 kts | 168° |
| 2026-04-16 17:09 | 55.23855 | -131.64529 | 6092 ft | 153 kts | 170° |
| 2026-04-16 17:09 | 55.22795 | -131.64111 | 6863 ft | 159 kts | 171° |
| 2026-04-16 17:10 | 55.21742 | -131.63704 | 7744 ft | 160 kts | 171° |
| 2026-04-16 17:10 | 55.20670 | -131.63297 | 8623 ft | 164 kts | 172° |
| 2026-04-16 17:10 | 55.19578 | -131.62886 | 9340 ft | 164 kts | 173° |
| 2026-04-16 17:10 | 55.18451 | -131.62468 | 9911 ft | 169 kts | 173° |
| 2026-04-16 17:11 | 55.17286 | -131.62038 | 10459 ft | 174 kts | 173° |
| 2026-04-16 17:11 | 55.16101 | -131.61597 | 11015 ft | 177 kts | 173° |
| 2026-04-16 17:11 | 55.14908 | -131.61153 | 11529 ft | 181 kts | 173° |
| 2026-04-16 17:11 | 55.13666 | -131.60690 | 12064 ft | 183 kts | 174° |
| 2026-04-16 17:12 | 55.12409 | -131.60223 | 12549 ft | 187 kts | 174° |
| 2026-04-16 17:12 | 55.11139 | -131.59752 | 13013 ft | 191 kts | 174° |
| 2026-04-16 17:12 | 55.09819 | -131.59261 | 13485 ft | 194 kts | 174° |
| 2026-04-16 17:12 | 55.08509 | -131.58774 | 13932 ft | 197 kts | 175° |
| 2026-04-16 17:13 | 55.07171 | -131.58278 | 14368 ft | 199 kts | 175° |
| 2026-04-16 17:13 | 55.05838 | -131.57558 | 14797 ft | 206 kts | 159° |
| 2026-04-16 17:13 | 55.04601 | -131.56253 | 15219 ft | 210 kts | 150° |
| 2026-04-16 17:13 | 55.03350 | -131.54898 | 15653 ft | 211 kts | 151° |
| 2026-04-16 17:14 | 55.02097 | -131.53561 | 16093 ft | 218 kts | 152° |
| 2026-04-16 17:14 | 55.00812 | -131.52188 | 16709 ft | 219 kts | 151° |
| 2026-04-16 17:14 | 54.99514 | -131.50792 | 17314 ft | 220 kts | 152° |
| 2026-04-16 17:14 | 54.98225 | -131.49406 | 17843 ft | 223 kts | 152° |
| 2026-04-16 17:15 | 54.96897 | -131.47978 | 18375 ft | 226 kts | 151° |
| 2026-04-16 17:15 | 54.95554 | -131.46533 | 18896 ft | 228 kts | 152° |
| 2026-04-16 17:15 | 54.94207 | -131.45085 | 19405 ft | 231 kts | 152° |
| 2026-04-16 17:15 | 54.92851 | -131.43628 | 19898 ft | 233 kts | 151° |
| 2026-04-16 17:16 | 54.91465 | -131.42140 | 20369 ft | 235 kts | 152° |
| 2026-04-16 17:16 | 54.90048 | -131.40620 | 21037 ft | 244 kts | 151° |
| 2026-04-16 17:16 | 54.88627 | -131.39092 | 21711 ft | 236 kts | 152° |
| 2026-04-16 17:16 | 54.87227 | -131.37593 | 21929 ft | 239 kts | 152° |
| 2026-04-16 17:17 | 54.85794 | -131.36069 | 22097 ft | 243 kts | 152° |
| 2026-04-16 17:17 | 54.84341 | -131.34523 | 22279 ft | 246 kts | 153° |
| 2026-04-16 17:17 | 54.82904 | -131.32991 | 22498 ft | 246 kts | 153° |
| 2026-04-16 17:17 | 54.81428 | -131.31418 | 22695 ft | 248 kts | 153° |
| 2026-04-16 17:18 | 54.79941 | -131.29831 | 22890 ft | 249 kts | 153° |
| 2026-04-16 17:18 | 54.78453 | -131.28247 | 23076 ft | 250 kts | 152° |
| 2026-04-16 17:18 | 54.76971 | -131.26669 | 23203 ft | 255 kts | 152° |
| 2026-04-16 17:18 | 54.75419 | -131.25026 | 23241 ft | 276 kts | 152° |
| 2026-04-16 17:19 | 54.73687 | -131.23196 | 23243 ft | 303 kts | 151° |
| 2026-04-16 17:19 | 54.71831 | -131.21222 | 23235 ft | 323 kts | 151° |
| 2026-04-16 17:19 | 54.69910 | -131.19076 | 23229 ft | 337 kts | 147° |
| 2026-04-16 17:19 | 54.67973 | -131.16656 | 23227 ft | 347 kts | 144° |
| 2026-04-16 17:20 | 54.66065 | -131.14092 | 23226 ft | 354 kts | 143° |
| 2026-04-16 17:20 | 54.64111 | -131.11449 | 23223 ft | 358 kts | 143° |
| 2026-04-16 17:20 | 54.62065 | -131.08852 | 23221 ft | 361 kts | 146° |
| 2026-04-16 17:20 | 54.59976 | -131.06474 | 23224 ft | 363 kts | 150° |
| 2026-04-16 17:21 | 54.57843 | -131.04227 | 23223 ft | 364 kts | 151° |
| 2026-04-16 17:21 | 54.55672 | -131.01968 | 23222 ft | 365 kts | 152° |
| 2026-04-16 17:21 | 54.53480 | -130.99699 | 23222 ft | 366 kts | 151° |
| 2026-04-16 17:21 | 54.51296 | -130.97443 | 23223 ft | 367 kts | 151° |
| 2026-04-16 17:22 | 54.49138 | -130.95212 | 23226 ft | 367 kts | 151° |
| 2026-04-16 17:22 | 54.46943 | -130.92943 | 23227 ft | 367 kts | 151° |
| 2026-04-16 17:22 | 54.44756 | -130.90683 | 23225 ft | 367 kts | 151° |
| 2026-04-16 17:22 | 54.42551 | -130.88406 | 23229 ft | 367 kts | 151° |
| 2026-04-16 17:23 | 54.40378 | -130.86165 | 23229 ft | 366 kts | 151° |
| 2026-04-16 17:23 | 54.38195 | -130.83916 | 23226 ft | 365 kts | 151° |
| 2026-04-16 17:23 | 54.36035 | -130.81692 | 23231 ft | 364 kts | 152° |
| 2026-04-16 17:23 | 54.33855 | -130.79451 | 23229 ft | 364 kts | 152° |
| 2026-04-16 17:24 | 54.31696 | -130.77234 | 23234 ft | 363 kts | 152° |
| 2026-04-16 17:24 | 54.29539 | -130.75023 | 23233 ft | 363 kts | 151° |
| 2026-04-16 17:24 | 54.27373 | -130.72804 | 23236 ft | 363 kts | 151° |
| 2026-04-16 17:24 | 54.25205 | -130.70589 | 23236 ft | 363 kts | 151° |
| 2026-04-16 17:25 | 54.23029 | -130.68364 | 23237 ft | 362 kts | 151° |
| 2026-04-16 17:25 | 54.20864 | -130.66156 | 23237 ft | 363 kts | 151° |
| 2026-04-16 17:25 | 54.18693 | -130.63945 | 23238 ft | 362 kts | 151° |
| 2026-04-16 17:25 | 54.16531 | -130.61745 | 23237 ft | 363 kts | 151° |
| 2026-04-16 17:26 | 54.14389 | -130.59566 | 23237 ft | 363 kts | 151° |
| 2026-04-16 17:26 | 54.12210 | -130.57353 | 23235 ft | 363 kts | 152° |
| 2026-04-16 17:26 | 54.10033 | -130.55147 | 23237 ft | 363 kts | 151° |
| 2026-04-16 17:26 | 54.07860 | -130.52945 | 23230 ft | 363 kts | 151° |
| 2026-04-16 17:27 | 54.05715 | -130.50777 | 23230 ft | 364 kts | 151° |
| 2026-04-16 17:27 | 54.03521 | -130.48560 | 23226 ft | 364 kts | 151° |
| 2026-04-16 17:27 | 54.01364 | -130.46384 | 23225 ft | 364 kts | 151° |
| 2026-04-16 17:27 | 53.99191 | -130.44192 | 23228 ft | 364 kts | 151° |
| 2026-04-16 17:28 | 53.97024 | -130.42012 | 23231 ft | 363 kts | 151° |
| 2026-04-16 17:28 | 53.94831 | -130.39807 | 23232 ft | 364 kts | 151° |